sensor_id;sensor_type;location;lat;lon;timestamp;P1;durP1;ratioP1;P2;durP2;ratioP2
23404;SDS011;11875;49.356;2.718;2022-07-29T00:02:13;2.65;;;1.90;;
23404;SDS011;11875;49.356;2.718;2022-07-29T00:04:38;10.40;;;2.08;;
23404;SDS011;11875;49.356;2.718;2022-07-29T00:07:04;3.58;;;2.10;;
23404;SDS011;11875;49.356;2.718;2022-07-29T00:09:30;2.92;;;1.73;;
23404;SDS011;11875;49.356;2.718;2022-07-29T00:11:58;3.92;;;1.70;;
23404;SDS011;11875;49.356;2.718;2022-07-29T00:14:25;1.85;;;1.70;;
23404;SDS011;11875;49.356;2.718;2022-07-29T00:16:52;2.17;;;1.55;;
23404;SDS011;11875;49.356;2.718;2022-07-29T00:19:17;5.30;;;1.92;;
23404;SDS011;11875;49.356;2.718;2022-07-29T00:21:44;2.58;;;1.75;;
23404;SDS011;11875;49.356;2.718;2022-07-29T00:24:09;8.48;;;2.00;;
23404;SDS011;11875;49.356;2.718;2022-07-29T00:26:35;3.67;;;2.00;;
23404;SDS011;11875;49.356;2.718;2022-07-29T00:29:01;2.75;;;1.90;;
23404;SDS011;11875;49.356;2.718;2022-07-29T00:31:28;3.00;;;1.95;;
23404;SDS011;11875;49.356;2.718;2022-07-29T00:33:54;2.50;;;1.90;;
23404;SDS011;11875;49.356;2.718;2022-07-29T00:36:19;3.42;;;2.05;;
23404;SDS011;11875;49.356;2.718;2022-07-29T00:38:48;3.45;;;2.35;;
23404;SDS011;11875;49.356;2.718;2022-07-29T00:41:15;3.83;;;2.10;;
23404;SDS011;11875;49.356;2.718;2022-07-29T00:43:42;5.15;;;2.47;;
23404;SDS011;11875;49.356;2.718;2022-07-29T00:46:07;10.57;;;2.53;;
23404;SDS011;11875;49.356;2.718;2022-07-29T00:48:33;8.38;;;2.67;;
23404;SDS011;11875;49.356;2.718;2022-07-29T00:50:59;11.95;;;2.85;;
23404;SDS011;11875;49.356;2.718;2022-07-29T00:53:27;5.15;;;2.28;;
23404;SDS011;11875;49.356;2.718;2022-07-29T00:55:54;4.03;;;1.90;;
23404;SDS011;11875;49.356;2.718;2022-07-29T00:58:21;3.88;;;1.98;;
23404;SDS011;11875;49.356;2.718;2022-07-29T01:00:47;5.55;;;2.05;;
23404;SDS011;11875;49.356;2.718;2022-07-29T01:03:13;6.05;;;2.10;;
23404;SDS011;11875;49.356;2.718;2022-07-29T01:05:39;3.50;;;1.80;;
23404;SDS011;11875;49.356;2.718;2022-07-29T01:08:08;3.95;;;2.20;;
23404;SDS011;11875;49.356;2.718;2022-07-29T01:10:36;3.58;;;1.90;;
23404;SDS011;11875;49.356;2.718;2022-07-29T01:13:04;6.47;;;2.15;;
23404;SDS011;11875;49.356;2.718;2022-07-29T01:15:31;4.75;;;2.22;;
23404;SDS011;11875;49.356;2.718;2022-07-29T01:18:05;4.18;;;2.10;;
23404;SDS011;11875;49.356;2.718;2022-07-29T01:29:02;7.68;;;2.22;;
23404;SDS011;11875;49.356;2.718;2022-07-29T01:31:33;6.72;;;2.33;;
23404;SDS011;11875;49.356;2.718;2022-07-29T01:34:23;7.00;;;2.78;;
23404;SDS011;11875;49.356;2.718;2022-07-29T01:37:21;4.93;;;2.50;;
23404;SDS011;11875;49.356;2.718;2022-07-29T01:39:51;4.88;;;2.90;;
23404;SDS011;11875;49.356;2.718;2022-07-29T01:42:27;2.70;;;2.00;;
23404;SDS011;11875;49.356;2.718;2022-07-29T01:44:57;3.75;;;2.20;;
23404;SDS011;11875;49.356;2.718;2022-07-29T01:47:44;18.58;;;2.53;;
23404;SDS011;11875;49.356;2.718;2022-07-29T01:50:19;3.22;;;1.88;;
23404;SDS011;11875;49.356;2.718;2022-07-29T01:55:28;6.50;;;2.67;;
23404;SDS011;11875;49.356;2.718;2022-07-29T01:57:57;4.43;;;2.42;;
23404;SDS011;11875;49.356;2.718;2022-07-29T02:00:24;6.55;;;2.53;;
23404;SDS011;11875;49.356;2.718;2022-07-29T02:02:51;4.28;;;2.25;;
23404;SDS011;11875;49.356;2.718;2022-07-29T02:05:20;3.63;;;2.22;;
23404;SDS011;11875;49.356;2.718;2022-07-29T02:07:48;3.83;;;2.10;;
23404;SDS011;11875;49.356;2.718;2022-07-29T02:10:15;3.85;;;2.17;;
23404;SDS011;11875;49.356;2.718;2022-07-29T02:12:43;7.43;;;2.40;;
23404;SDS011;11875;49.356;2.718;2022-07-29T02:15:11;7.53;;;2.22;;
23404;SDS011;11875;49.356;2.718;2022-07-29T02:17:49;3.97;;;2.30;;
23404;SDS011;11875;49.356;2.718;2022-07-29T02:20:20;3.20;;;2.10;;
23404;SDS011;11875;49.356;2.718;2022-07-29T02:22:49;3.28;;;2.38;;
23404;SDS011;11875;49.356;2.718;2022-07-29T02:25:16;4.28;;;2.55;;
23404;SDS011;11875;49.356;2.718;2022-07-29T02:27:43;5.22;;;2.63;;
23404;SDS011;11875;49.356;2.718;2022-07-29T02:30:09;4.63;;;2.33;;
23404;SDS011;11875;49.356;2.718;2022-07-29T02:32:37;8.90;;;2.35;;
23404;SDS011;11875;49.356;2.718;2022-07-29T02:35:05;4.78;;;2.30;;
23404;SDS011;11875;49.356;2.718;2022-07-29T02:37:32;3.35;;;2.40;;
23404;SDS011;11875;49.356;2.718;2022-07-29T02:40:00;5.68;;;2.20;;
23404;SDS011;11875;49.356;2.718;2022-07-29T02:42:27;9.00;;;2.38;;
23404;SDS011;11875;49.356;2.718;2022-07-29T02:44:53;5.40;;;2.50;;
23404;SDS011;11875;49.356;2.718;2022-07-29T02:50:11;3.17;;;2.28;;
23404;SDS011;11875;49.356;2.718;2022-07-29T02:55:23;2.72;;;2.30;;
23404;SDS011;11875;49.356;2.718;2022-07-29T02:58:02;5.20;;;2.25;;
23404;SDS011;11875;49.356;2.718;2022-07-29T03:00:36;4.45;;;2.65;;
23404;SDS011;11875;49.356;2.718;2022-07-29T03:03:07;8.05;;;2.38;;
23404;SDS011;11875;49.356;2.718;2022-07-29T03:05:36;4.43;;;2.10;;
23404;SDS011;11875;49.356;2.718;2022-07-29T03:08:03;3.65;;;2.25;;
23404;SDS011;11875;49.356;2.718;2022-07-29T03:10:30;5.13;;;2.67;;
23404;SDS011;11875;49.356;2.718;2022-07-29T03:12:57;5.95;;;2.15;;
23404;SDS011;11875;49.356;2.718;2022-07-29T03:15:23;3.90;;;2.45;;
23404;SDS011;11875;49.356;2.718;2022-07-29T03:17:50;5.20;;;2.55;;
23404;SDS011;11875;49.356;2.718;2022-07-29T03:20:16;5.32;;;2.10;;
23404;SDS011;11875;49.356;2.718;2022-07-29T03:22:43;6.38;;;2.45;;
23404;SDS011;11875;49.356;2.718;2022-07-29T03:25:12;2.67;;;2.08;;
23404;SDS011;11875;49.356;2.718;2022-07-29T03:27:39;5.97;;;2.33;;
23404;SDS011;11875;49.356;2.718;2022-07-29T03:30:07;3.13;;;2.30;;
23404;SDS011;11875;49.356;2.718;2022-07-29T03:32:35;4.90;;;2.25;;
23404;SDS011;11875;49.356;2.718;2022-07-29T03:35:01;4.40;;;2.40;;
23404;SDS011;11875;49.356;2.718;2022-07-29T03:37:27;3.42;;;2.15;;
23404;SDS011;11875;49.356;2.718;2022-07-29T03:39:55;5.97;;;2.30;;
23404;SDS011;11875;49.356;2.718;2022-07-29T03:42:23;6.05;;;2.55;;
23404;SDS011;11875;49.356;2.718;2022-07-29T03:44:52;3.10;;;2.20;;
23404;SDS011;11875;49.356;2.718;2022-07-29T03:47:20;7.95;;;2.70;;
23404;SDS011;11875;49.356;2.718;2022-07-29T03:49:50;4.60;;;2.30;;
23404;SDS011;11875;49.356;2.718;2022-07-29T03:52:19;3.45;;;2.35;;
23404;SDS011;11875;49.356;2.718;2022-07-29T03:54:45;2.65;;;1.90;;
23404;SDS011;11875;49.356;2.718;2022-07-29T03:57:12;7.15;;;2.85;;
23404;SDS011;11875;49.356;2.718;2022-07-29T03:59:39;2.80;;;2.50;;
23404;SDS011;11875;49.356;2.718;2022-07-29T04:02:08;2.60;;;2.20;;
23404;SDS011;11875;49.356;2.718;2022-07-29T04:04:35;7.80;;;2.10;;
23404;SDS011;11875;49.356;2.718;2022-07-29T04:07:01;4.85;;;2.17;;
23404;SDS011;11875;49.356;2.718;2022-07-29T04:09:28;4.55;;;2.90;;
23404;SDS011;11875;49.356;2.718;2022-07-29T04:11:54;5.18;;;2.30;;
23404;SDS011;11875;49.356;2.718;2022-07-29T04:14:19;6.38;;;2.70;;
23404;SDS011;11875;49.356;2.718;2022-07-29T04:16:45;5.15;;;2.60;;
23404;SDS011;11875;49.356;2.718;2022-07-29T04:19:11;9.73;;;2.22;;
23404;SDS011;11875;49.356;2.718;2022-07-29T04:21:38;6.72;;;2.55;;
23404;SDS011;11875;49.356;2.718;2022-07-29T04:24:04;8.65;;;3.00;;
23404;SDS011;11875;49.356;2.718;2022-07-29T04:26:30;4.03;;;2.28;;
23404;SDS011;11875;49.356;2.718;2022-07-29T04:28:55;7.70;;;2.58;;
23404;SDS011;11875;49.356;2.718;2022-07-29T04:31:21;4.68;;;2.40;;
23404;SDS011;11875;49.356;2.718;2022-07-29T04:33:46;4.38;;;2.67;;
23404;SDS011;11875;49.356;2.718;2022-07-29T04:36:12;4.18;;;2.55;;
23404;SDS011;11875;49.356;2.718;2022-07-29T04:38:38;4.88;;;2.92;;
23404;SDS011;11875;49.356;2.718;2022-07-29T04:41:04;4.60;;;2.88;;
23404;SDS011;11875;49.356;2.718;2022-07-29T04:43:31;2.60;;;2.40;;
23404;SDS011;11875;49.356;2.718;2022-07-29T04:45:58;9.10;;;2.70;;
23404;SDS011;11875;49.356;2.718;2022-07-29T04:48:23;3.28;;;2.50;;
23404;SDS011;11875;49.356;2.718;2022-07-29T04:50:49;6.13;;;2.78;;
23404;SDS011;11875;49.356;2.718;2022-07-29T04:53:14;3.38;;;2.15;;
23404;SDS011;11875;49.356;2.718;2022-07-29T04:55:40;4.53;;;2.70;;
23404;SDS011;11875;49.356;2.718;2022-07-29T04:58:06;2.83;;;2.28;;
23404;SDS011;11875;49.356;2.718;2022-07-29T05:00:32;5.00;;;2.50;;
23404;SDS011;11875;49.356;2.718;2022-07-29T05:02:58;4.93;;;2.40;;
23404;SDS011;11875;49.356;2.718;2022-07-29T05:05:24;11.25;;;2.80;;
23404;SDS011;11875;49.356;2.718;2022-07-29T05:07:49;7.50;;;2.78;;
23404;SDS011;11875;49.356;2.718;2022-07-29T05:10:15;6.97;;;2.88;;
23404;SDS011;11875;49.356;2.718;2022-07-29T05:12:40;8.60;;;2.75;;
23404;SDS011;11875;49.356;2.718;2022-07-29T05:15:06;7.95;;;3.42;;
23404;SDS011;11875;49.356;2.718;2022-07-29T05:17:32;5.53;;;2.90;;
23404;SDS011;11875;49.356;2.718;2022-07-29T05:19:58;4.00;;;2.97;;
23404;SDS011;11875;49.356;2.718;2022-07-29T05:22:24;17.73;;;3.00;;
23404;SDS011;11875;49.356;2.718;2022-07-29T05:24:50;8.32;;;3.17;;
23404;SDS011;11875;49.356;2.718;2022-07-29T05:27:15;15.35;;;3.40;;
23404;SDS011;11875;49.356;2.718;2022-07-29T05:29:41;5.47;;;3.00;;
23404;SDS011;11875;49.356;2.718;2022-07-29T05:32:07;7.65;;;2.65;;
23404;SDS011;11875;49.356;2.718;2022-07-29T05:34:32;10.13;;;4.18;;
23404;SDS011;11875;49.356;2.718;2022-07-29T05:36:58;8.45;;;2.80;;
23404;SDS011;11875;49.356;2.718;2022-07-29T05:39:24;5.35;;;2.53;;
23404;SDS011;11875;49.356;2.718;2022-07-29T05:41:49;2.95;;;2.40;;
23404;SDS011;11875;49.356;2.718;2022-07-29T05:44:15;6.53;;;2.75;;
23404;SDS011;11875;49.356;2.718;2022-07-29T05:46:41;6.43;;;3.10;;
23404;SDS011;11875;49.356;2.718;2022-07-29T05:49:06;5.60;;;2.83;;
23404;SDS011;11875;49.356;2.718;2022-07-29T05:51:33;4.97;;;3.10;;
23404;SDS011;11875;49.356;2.718;2022-07-29T05:53:59;7.65;;;3.25;;
23404;SDS011;11875;49.356;2.718;2022-07-29T05:56:24;10.38;;;3.40;;
23404;SDS011;11875;49.356;2.718;2022-07-29T05:58:50;10.50;;;3.15;;
23404;SDS011;11875;49.356;2.718;2022-07-29T06:01:17;9.65;;;3.40;;
23404;SDS011;11875;49.356;2.718;2022-07-29T06:03:42;8.65;;;3.10;;
23404;SDS011;11875;49.356;2.718;2022-07-29T06:06:08;6.50;;;3.00;;
23404;SDS011;11875;49.356;2.718;2022-07-29T06:08:34;11.80;;;4.15;;
23404;SDS011;11875;49.356;2.718;2022-07-29T06:11:01;5.30;;;3.08;;
23404;SDS011;11875;49.356;2.718;2022-07-29T06:13:28;5.78;;;3.00;;
23404;SDS011;11875;49.356;2.718;2022-07-29T06:15:54;4.85;;;2.90;;
23404;SDS011;11875;49.356;2.718;2022-07-29T06:18:20;9.15;;;2.78;;
23404;SDS011;11875;49.356;2.718;2022-07-29T06:20:48;7.75;;;3.40;;
23404;SDS011;11875;49.356;2.718;2022-07-29T06:23:14;28.73;;;4.53;;
23404;SDS011;11875;49.356;2.718;2022-07-29T06:25:40;4.55;;;3.17;;
23404;SDS011;11875;49.356;2.718;2022-07-29T06:28:06;5.88;;;3.65;;
23404;SDS011;11875;49.356;2.718;2022-07-29T06:30:31;6.75;;;3.25;;
23404;SDS011;11875;49.356;2.718;2022-07-29T06:32:57;9.15;;;3.10;;
23404;SDS011;11875;49.356;2.718;2022-07-29T06:35:23;8.38;;;2.70;;
23404;SDS011;11875;49.356;2.718;2022-07-29T06:37:48;4.78;;;2.63;;
23404;SDS011;11875;49.356;2.718;2022-07-29T06:40:14;7.40;;;2.92;;
23404;SDS011;11875;49.356;2.718;2022-07-29T06:42:58;4.40;;;2.63;;
23404;SDS011;11875;49.356;2.718;2022-07-29T06:45:24;5.43;;;2.80;;
23404;SDS011;11875;49.356;2.718;2022-07-29T06:47:49;4.80;;;2.88;;
23404;SDS011;11875;49.356;2.718;2022-07-29T06:50:15;5.88;;;2.78;;
23404;SDS011;11875;49.356;2.718;2022-07-29T06:52:41;10.23;;;3.10;;
23404;SDS011;11875;49.356;2.718;2022-07-29T06:55:07;6.85;;;3.10;;
23404;SDS011;11875;49.356;2.718;2022-07-29T06:57:33;11.02;;;3.75;;
23404;SDS011;11875;49.356;2.718;2022-07-29T06:59:58;16.13;;;4.07;;
23404;SDS011;11875;49.356;2.718;2022-07-29T07:02:24;5.93;;;3.20;;
23404;SDS011;11875;49.356;2.718;2022-07-29T07:04:50;10.07;;;3.38;;
23404;SDS011;11875;49.356;2.718;2022-07-29T07:07:16;9.23;;;4.13;;
23404;SDS011;11875;49.356;2.718;2022-07-29T07:09:42;7.32;;;3.28;;
23404;SDS011;11875;49.356;2.718;2022-07-29T07:12:08;8.18;;;3.13;;
23404;SDS011;11875;49.356;2.718;2022-07-29T07:14:34;6.53;;;2.70;;
23404;SDS011;11875;49.356;2.718;2022-07-29T07:17:00;11.63;;;2.85;;
23404;SDS011;11875;49.356;2.718;2022-07-29T07:19:28;13.63;;;3.20;;
23404;SDS011;11875;49.356;2.718;2022-07-29T07:21:54;7.32;;;3.30;;
23404;SDS011;11875;49.356;2.718;2022-07-29T07:24:20;8.85;;;2.95;;
23404;SDS011;11875;49.356;2.718;2022-07-29T07:26:45;7.40;;;2.83;;
23404;SDS011;11875;49.356;2.718;2022-07-29T07:29:11;17.08;;;3.53;;
23404;SDS011;11875;49.356;2.718;2022-07-29T07:31:37;7.95;;;2.67;;
23404;SDS011;11875;49.356;2.718;2022-07-29T07:34:03;9.18;;;2.83;;
23404;SDS011;11875;49.356;2.718;2022-07-29T07:36:29;8.80;;;3.40;;
23404;SDS011;11875;49.356;2.718;2022-07-29T07:38:55;7.65;;;2.97;;
23404;SDS011;11875;49.356;2.718;2022-07-29T07:41:21;11.23;;;3.50;;
23404;SDS011;11875;49.356;2.718;2022-07-29T07:43:47;6.95;;;2.95;;
23404;SDS011;11875;49.356;2.718;2022-07-29T07:46:13;7.63;;;2.78;;
23404;SDS011;11875;49.356;2.718;2022-07-29T07:48:40;6.97;;;5.40;;
23404;SDS011;11875;49.356;2.718;2022-07-29T07:51:05;8.82;;;2.47;;
23404;SDS011;11875;49.356;2.718;2022-07-29T07:53:32;7.63;;;2.90;;
23404;SDS011;11875;49.356;2.718;2022-07-29T07:55:58;9.27;;;3.13;;
23404;SDS011;11875;49.356;2.718;2022-07-29T07:58:24;7.22;;;2.95;;
23404;SDS011;11875;49.356;2.718;2022-07-29T08:00:50;8.48;;;3.30;;
23404;SDS011;11875;49.356;2.718;2022-07-29T08:03:15;7.53;;;2.70;;
23404;SDS011;11875;49.356;2.718;2022-07-29T08:05:41;8.15;;;3.05;;
23404;SDS011;11875;49.356;2.718;2022-07-29T08:08:07;8.48;;;2.40;;
23404;SDS011;11875;49.356;2.718;2022-07-29T08:10:33;10.88;;;3.08;;
23404;SDS011;11875;49.356;2.718;2022-07-29T08:13:17;9.80;;;2.70;;
23404;SDS011;11875;49.356;2.718;2022-07-29T08:15:47;13.65;;;3.13;;
23404;SDS011;11875;49.356;2.718;2022-07-29T08:18:13;6.35;;;2.75;;
23404;SDS011;11875;49.356;2.718;2022-07-29T08:20:38;10.73;;;2.75;;
23404;SDS011;11875;49.356;2.718;2022-07-29T08:23:05;7.82;;;2.67;;
23404;SDS011;11875;49.356;2.718;2022-07-29T08:25:34;9.98;;;2.58;;
23404;SDS011;11875;49.356;2.718;2022-07-29T08:28:01;17.10;;;2.97;;
23404;SDS011;11875;49.356;2.718;2022-07-29T08:30:27;10.07;;;2.60;;
23404;SDS011;11875;49.356;2.718;2022-07-29T08:32:53;9.02;;;2.72;;
23404;SDS011;11875;49.356;2.718;2022-07-29T08:35:19;3.95;;;2.42;;
23404;SDS011;11875;49.356;2.718;2022-07-29T08:37:46;10.30;;;2.50;;
23404;SDS011;11875;49.356;2.718;2022-07-29T08:40:11;10.77;;;2.47;;
23404;SDS011;11875;49.356;2.718;2022-07-29T08:42:39;7.47;;;2.60;;
23404;SDS011;11875;49.356;2.718;2022-07-29T08:45:04;6.10;;;2.45;;
23404;SDS011;11875;49.356;2.718;2022-07-29T08:47:31;6.70;;;2.28;;
23404;SDS011;11875;49.356;2.718;2022-07-29T08:49:57;7.80;;;2.05;;
23404;SDS011;11875;49.356;2.718;2022-07-29T08:52:26;8.45;;;2.00;;
23404;SDS011;11875;49.356;2.718;2022-07-29T08:54:53;5.97;;;2.25;;
23404;SDS011;11875;49.356;2.718;2022-07-29T08:57:19;9.68;;;2.10;;
23404;SDS011;11875;49.356;2.718;2022-07-29T08:59:46;5.38;;;1.80;;
23404;SDS011;11875;49.356;2.718;2022-07-29T09:02:24;7.88;;;2.15;;
23404;SDS011;11875;49.356;2.718;2022-07-29T09:04:53;5.03;;;2.10;;
23404;SDS011;11875;49.356;2.718;2022-07-29T09:07:19;6.93;;;1.75;;
23404;SDS011;11875;49.356;2.718;2022-07-29T09:09:45;2.47;;;1.80;;
23404;SDS011;11875;49.356;2.718;2022-07-29T09:12:11;2.05;;;1.52;;
23404;SDS011;11875;49.356;2.718;2022-07-29T09:14:40;2.97;;;1.83;;
23404;SDS011;11875;49.356;2.718;2022-07-29T09:17:06;6.00;;;1.75;;
23404;SDS011;11875;49.356;2.718;2022-07-29T09:19:33;10.32;;;2.10;;
23404;SDS011;11875;49.356;2.718;2022-07-29T09:22:02;7.38;;;2.42;;
23404;SDS011;11875;49.356;2.718;2022-07-29T09:24:37;4.07;;;1.65;;
23404;SDS011;11875;49.356;2.718;2022-07-29T09:30:02;4.57;;;1.25;;
23404;SDS011;11875;49.356;2.718;2022-07-29T09:32:53;4.97;;;1.40;;
23404;SDS011;11875;49.356;2.718;2022-07-29T09:35:21;4.03;;;1.58;;
23404;SDS011;11875;49.356;2.718;2022-07-29T09:37:48;5.00;;;1.65;;
23404;SDS011;11875;49.356;2.718;2022-07-29T09:40:18;3.28;;;1.50;;
23404;SDS011;11875;49.356;2.718;2022-07-29T09:42:53;3.25;;;1.58;;
23404;SDS011;11875;49.356;2.718;2022-07-29T09:45:32;1.73;;;1.38;;
23404;SDS011;11875;49.356;2.718;2022-07-29T09:47:59;2.90;;;1.40;;
23404;SDS011;11875;49.356;2.718;2022-07-29T09:50:41;8.00;;;1.73;;
23404;SDS011;11875;49.356;2.718;2022-07-29T09:53:09;5.40;;;1.50;;
23404;SDS011;11875;49.356;2.718;2022-07-29T09:55:49;5.20;;;1.50;;
23404;SDS011;11875;49.356;2.718;2022-07-29T09:58:19;3.63;;;1.40;;
23404;SDS011;11875;49.356;2.718;2022-07-29T10:00:47;1.92;;;1.60;;
23404;SDS011;11875;49.356;2.718;2022-07-29T10:03:15;4.43;;;1.60;;
23404;SDS011;11875;49.356;2.718;2022-07-29T10:05:42;3.65;;;1.50;;
23404;SDS011;11875;49.356;2.718;2022-07-29T10:08:08;4.78;;;1.58;;
23404;SDS011;11875;49.356;2.718;2022-07-29T10:10:39;7.30;;;1.60;;
23404;SDS011;11875;49.356;2.718;2022-07-29T10:13:13;3.38;;;1.60;;
23404;SDS011;11875;49.356;2.718;2022-07-29T10:15:43;4.28;;;1.42;;
23404;SDS011;11875;49.356;2.718;2022-07-29T10:18:11;6.32;;;1.27;;
23404;SDS011;11875;49.356;2.718;2022-07-29T10:20:37;6.15;;;1.52;;
23404;SDS011;11875;49.356;2.718;2022-07-29T10:23:04;4.85;;;1.63;;
23404;SDS011;11875;49.356;2.718;2022-07-29T10:25:30;5.47;;;1.73;;
23404;SDS011;11875;49.356;2.718;2022-07-29T10:27:56;4.22;;;1.73;;
23404;SDS011;11875;49.356;2.718;2022-07-29T10:30:22;6.57;;;1.95;;
23404;SDS011;11875;49.356;2.718;2022-07-29T10:38:10;3.63;;;1.40;;
23404;SDS011;11875;49.356;2.718;2022-07-29T10:44:36;4.78;;;1.73;;
23404;SDS011;11875;49.356;2.718;2022-07-29T10:46:44;7.43;;;1.85;;
23404;SDS011;11875;49.356;2.718;2022-07-29T10:49:17;3.63;;;1.48;;
23404;SDS011;11875;49.356;2.718;2022-07-29T10:54:19;3.22;;;1.40;;
23404;SDS011;11875;49.356;2.718;2022-07-29T10:59:49;10.10;;;1.50;;
23404;SDS011;11875;49.356;2.718;2022-07-29T11:10:41;5.47;;;1.60;;
23404;SDS011;11875;49.356;2.718;2022-07-29T11:13:07;8.80;;;1.80;;
23404;SDS011;11875;49.356;2.718;2022-07-29T11:15:51;7.25;;;2.00;;
23404;SDS011;11875;49.356;2.718;2022-07-29T11:18:21;1.58;;;1.30;;
23404;SDS011;11875;49.356;2.718;2022-07-29T11:20:48;3.50;;;1.70;;
23404;SDS011;11875;49.356;2.718;2022-07-29T11:23:18;5.53;;;1.60;;
23404;SDS011;11875;49.356;2.718;2022-07-29T11:31:19;2.72;;;1.77;;
23404;SDS011;11875;49.356;2.718;2022-07-29T11:34:15;4.63;;;1.23;;
23404;SDS011;11875;49.356;2.718;2022-07-29T11:39:37;4.88;;;1.20;;
23404;SDS011;11875;49.356;2.718;2022-07-29T11:44:57;3.08;;;1.40;;
23404;SDS011;11875;49.356;2.718;2022-07-29T11:47:54;3.60;;;1.25;;
23404;SDS011;11875;49.356;2.718;2022-07-29T11:50:26;3.97;;;1.30;;
23404;SDS011;11875;49.356;2.718;2022-07-29T11:53:01;2.47;;;1.50;;
23404;SDS011;11875;49.356;2.718;2022-07-29T11:55:37;2.33;;;1.40;;
23404;SDS011;11875;49.356;2.718;2022-07-29T11:58:04;2.83;;;1.15;;
23404;SDS011;11875;49.356;2.718;2022-07-29T12:00:37;2.33;;;1.30;;
23404;SDS011;11875;49.356;2.718;2022-07-29T12:03:07;3.05;;;1.20;;
23404;SDS011;11875;49.356;2.718;2022-07-29T12:05:44;2.10;;;1.23;;
23404;SDS011;11875;49.356;2.718;2022-07-29T12:11:01;5.32;;;1.50;;
23404;SDS011;11875;49.356;2.718;2022-07-29T12:13:27;5.80;;;1.20;;
23404;SDS011;11875;49.356;2.718;2022-07-29T12:16:04;2.55;;;1.10;;
23404;SDS011;11875;49.356;2.718;2022-07-29T12:18:31;3.70;;;1.23;;
23404;SDS011;11875;49.356;2.718;2022-07-29T12:21:00;2.92;;;1.40;;
23404;SDS011;11875;49.356;2.718;2022-07-29T12:23:30;3.92;;;1.50;;
23404;SDS011;11875;49.356;2.718;2022-07-29T12:25:57;2.42;;;1.13;;
23404;SDS011;11875;49.356;2.718;2022-07-29T12:28:23;3.72;;;1.13;;
23404;SDS011;11875;49.356;2.718;2022-07-29T12:30:49;1.98;;;1.30;;
23404;SDS011;11875;49.356;2.718;2022-07-29T12:33:19;7.82;;;1.58;;
23404;SDS011;11875;49.356;2.718;2022-07-29T12:35:50;2.25;;;1.05;;
23404;SDS011;11875;49.356;2.718;2022-07-29T12:38:18;3.08;;;1.40;;
23404;SDS011;11875;49.356;2.718;2022-07-29T12:40:45;4.55;;;1.38;;
23404;SDS011;11875;49.356;2.718;2022-07-29T12:43:13;2.88;;;1.20;;
23404;SDS011;11875;49.356;2.718;2022-07-29T12:45:45;5.68;;;1.60;;
23404;SDS011;11875;49.356;2.718;2022-07-29T12:48:15;5.60;;;1.33;;
23404;SDS011;11875;49.356;2.718;2022-07-29T12:50:55;6.13;;;1.40;;
23404;SDS011;11875;49.356;2.718;2022-07-29T12:53:22;5.47;;;1.48;;
23404;SDS011;11875;49.356;2.718;2022-07-29T12:55:49;2.70;;;1.40;;
23404;SDS011;11875;49.356;2.718;2022-07-29T13:01:25;2.78;;;1.63;;
23404;SDS011;11875;49.356;2.718;2022-07-29T13:03:45;4.03;;;1.45;;
23404;SDS011;11875;49.356;2.718;2022-07-29T13:06:28;4.45;;;1.27;;
23404;SDS011;11875;49.356;2.718;2022-07-29T13:09:16;3.17;;;1.27;;
23404;SDS011;11875;49.356;2.718;2022-07-29T13:11:42;1.98;;;1.35;;
23404;SDS011;11875;49.356;2.718;2022-07-29T13:14:09;4.20;;;1.50;;
23404;SDS011;11875;49.356;2.718;2022-07-29T13:16:36;2.50;;;1.33;;
23404;SDS011;11875;49.356;2.718;2022-07-29T13:19:31;6.45;;;1.67;;
23404;SDS011;11875;49.356;2.718;2022-07-29T13:22:02;50.00;;;4.22;;
23404;SDS011;11875;49.356;2.718;2022-07-29T13:24:28;2.35;;;1.25;;
23404;SDS011;11875;49.356;2.718;2022-07-29T13:26:56;4.53;;;1.60;;
23404;SDS011;11875;49.356;2.718;2022-07-29T13:29:22;5.60;;;1.60;;
23404;SDS011;11875;49.356;2.718;2022-07-29T13:31:48;2.22;;;1.40;;
23404;SDS011;11875;49.356;2.718;2022-07-29T13:34:13;4.88;;;1.50;;
23404;SDS011;11875;49.356;2.718;2022-07-29T13:36:39;9.20;;;1.50;;
23404;SDS011;11875;49.356;2.718;2022-07-29T13:39:05;3.97;;;1.65;;
23404;SDS011;11875;49.356;2.718;2022-07-29T13:41:30;3.72;;;1.45;;
23404;SDS011;11875;49.356;2.718;2022-07-29T13:43:56;3.72;;;1.40;;
23404;SDS011;11875;49.356;2.718;2022-07-29T13:46:21;1.80;;;1.40;;
23404;SDS011;11875;49.356;2.718;2022-07-29T13:48:47;2.33;;;1.50;;
23404;SDS011;11875;49.356;2.718;2022-07-29T13:51:12;2.58;;;1.40;;
23404;SDS011;11875;49.356;2.718;2022-07-29T13:53:38;1.83;;;1.40;;
23404;SDS011;11875;49.356;2.718;2022-07-29T13:56:04;1.77;;;1.30;;
23404;SDS011;11875;49.356;2.718;2022-07-29T13:58:32;5.35;;;1.58;;
23404;SDS011;11875;49.356;2.718;2022-07-29T14:00:58;2.28;;;1.50;;
23404;SDS011;11875;49.356;2.718;2022-07-29T14:03:24;3.30;;;1.67;;
23404;SDS011;11875;49.356;2.718;2022-07-29T14:05:50;4.53;;;1.50;;
23404;SDS011;11875;49.356;2.718;2022-07-29T14:08:16;2.20;;;1.50;;
23404;SDS011;11875;49.356;2.718;2022-07-29T14:10:42;6.40;;;1.35;;
23404;SDS011;11875;49.356;2.718;2022-07-29T14:13:07;1.30;;;1.20;;
23404;SDS011;11875;49.356;2.718;2022-07-29T14:15:33;4.53;;;1.95;;
23404;SDS011;11875;49.356;2.718;2022-07-29T14:17:59;7.10;;;1.55;;
23404;SDS011;11875;49.356;2.718;2022-07-29T14:20:26;2.35;;;1.27;;
23404;SDS011;11875;49.356;2.718;2022-07-29T14:22:54;2.35;;;1.65;;
23404;SDS011;11875;49.356;2.718;2022-07-29T14:25:20;6.07;;;1.70;;
23404;SDS011;11875;49.356;2.718;2022-07-29T14:27:46;6.47;;;1.35;;
23404;SDS011;11875;49.356;2.718;2022-07-29T14:30:12;4.28;;;1.65;;
23404;SDS011;11875;49.356;2.718;2022-07-29T14:32:38;7.10;;;1.60;;
23404;SDS011;11875;49.356;2.718;2022-07-29T14:35:04;4.15;;;1.83;;
23404;SDS011;11875;49.356;2.718;2022-07-29T14:37:31;3.70;;;1.48;;
23404;SDS011;11875;49.356;2.718;2022-07-29T14:39:57;5.40;;;1.60;;
23404;SDS011;11875;49.356;2.718;2022-07-29T14:42:26;4.03;;;1.80;;
23404;SDS011;11875;49.356;2.718;2022-07-29T14:44:52;3.38;;;1.55;;
23404;SDS011;11875;49.356;2.718;2022-07-29T14:47:18;2.80;;;1.50;;
23404;SDS011;11875;49.356;2.718;2022-07-29T14:49:44;4.03;;;1.77;;
23404;SDS011;11875;49.356;2.718;2022-07-29T14:52:10;3.75;;;1.52;;
23404;SDS011;11875;49.356;2.718;2022-07-29T14:54:35;1.75;;;1.40;;
23404;SDS011;11875;49.356;2.718;2022-07-29T14:57:01;5.25;;;1.77;;
23404;SDS011;11875;49.356;2.718;2022-07-29T14:59:26;4.38;;;1.60;;
23404;SDS011;11875;49.356;2.718;2022-07-29T15:01:52;1.50;;;1.40;;
23404;SDS011;11875;49.356;2.718;2022-07-29T15:04:18;3.17;;;1.70;;
23404;SDS011;11875;49.356;2.718;2022-07-29T15:06:43;4.07;;;1.52;;
23404;SDS011;11875;49.356;2.718;2022-07-29T15:09:09;3.92;;;1.20;;
23404;SDS011;11875;49.356;2.718;2022-07-29T15:11:35;4.03;;;1.60;;
23404;SDS011;11875;49.356;2.718;2022-07-29T15:14:01;3.22;;;1.55;;
23404;SDS011;11875;49.356;2.718;2022-07-29T15:16:26;2.38;;;1.50;;
23404;SDS011;11875;49.356;2.718;2022-07-29T15:18:52;3.80;;;1.70;;
23404;SDS011;11875;49.356;2.718;2022-07-29T15:21:18;5.05;;;1.58;;
23404;SDS011;11875;49.356;2.718;2022-07-29T15:23:43;3.80;;;1.75;;
23404;SDS011;11875;49.356;2.718;2022-07-29T15:26:09;4.47;;;1.63;;
23404;SDS011;11875;49.356;2.718;2022-07-29T15:28:35;3.55;;;1.50;;
23404;SDS011;11875;49.356;2.718;2022-07-29T15:31:00;3.80;;;1.33;;
23404;SDS011;11875;49.356;2.718;2022-07-29T15:33:26;4.55;;;1.92;;
23404;SDS011;11875;49.356;2.718;2022-07-29T15:35:51;3.00;;;1.77;;
23404;SDS011;11875;49.356;2.718;2022-07-29T15:38:17;3.03;;;1.60;;
23404;SDS011;11875;49.356;2.718;2022-07-29T15:40:43;4.30;;;1.67;;
23404;SDS011;11875;49.356;2.718;2022-07-29T15:43:10;3.67;;;1.60;;
23404;SDS011;11875;49.356;2.718;2022-07-29T15:45:40;3.30;;;1.60;;
23404;SDS011;11875;49.356;2.718;2022-07-29T15:48:26;4.05;;;1.50;;
23404;SDS011;11875;49.356;2.718;2022-07-29T15:50:53;6.32;;;2.10;;